createdAt,value
2022-08-20T00:02:14.703Z,11.00
2022-08-20T00:04:42.079Z,12.23
2022-08-20T00:07:09.385Z,11.05
2022-08-20T00:09:37.045Z,10.65
2022-08-20T00:12:07.037Z,11.88
2022-08-20T00:14:36.179Z,10.13
2022-08-20T00:17:05.226Z,11.55
2022-08-20T00:19:32.508Z,11.05
2022-08-20T00:21:59.795Z,12.43
2022-08-20T00:24:27.131Z,11.70
2022-08-20T00:26:54.398Z,13.25
2022-08-20T00:29:22.599Z,12.02
2022-08-20T00:31:51.100Z,12.18
2022-08-20T00:34:18.817Z,14.25
2022-08-20T00:36:46.990Z,13.32
2022-08-20T00:39:14.434Z,13.38
2022-08-20T00:41:41.898Z,15.30
2022-08-20T00:44:22.028Z,15.25
2022-08-20T00:46:51.408Z,14.93
2022-08-20T00:49:28.189Z,18.77
2022-08-20T00:52:18.920Z,18.20
2022-08-20T00:54:59.197Z,19.83
2022-08-20T00:57:44.515Z,19.23
2022-08-20T01:00:35.711Z,16.23
2022-08-20T01:03:03.913Z,21.70
2022-08-20T01:05:32.223Z,17.38
2022-08-20T01:07:59.571Z,16.40
2022-08-20T01:10:35.040Z,16.08
2022-08-20T01:13:15.947Z,18.02
2022-08-20T01:15:48.273Z,16.13
2022-08-20T01:18:25.329Z,16.25
2022-08-20T01:21:04.067Z,16.77
2022-08-20T01:23:53.876Z,15.95
2022-08-20T01:26:37.459Z,17.13
2022-08-20T01:29:13.471Z,15.45
2022-08-20T01:31:42.635Z,15.85
2022-08-20T01:34:20.945Z,13.02
2022-08-20T01:36:53.377Z,14.88
2022-08-20T01:39:34.765Z,16.75
2022-08-20T01:42:36.213Z,15.73
2022-08-20T01:45:07.622Z,16.60
2022-08-20T01:47:38.508Z,18.08
2022-08-20T01:50:24.705Z,16.52
2022-08-20T01:53:30.095Z,16.63
2022-08-20T01:55:57.490Z,19.23
2022-08-20T01:58:24.961Z,18.77
2022-08-20T02:00:52.279Z,17.73
2022-08-20T02:03:19.549Z,17.77
2022-08-20T02:05:47.183Z,16.88
2022-08-20T02:08:15.009Z,16.50
2022-08-20T02:10:42.568Z,17.67
2022-08-20T02:13:10.201Z,19.77
2022-08-20T02:15:39.946Z,18.10
2022-08-20T02:18:15.656Z,16.23
2022-08-20T02:20:45.966Z,19.17
2022-08-20T02:23:15.571Z,17.85
2022-08-20T02:25:47.496Z,18.65
2022-08-20T02:28:20.676Z,19.20
2022-08-20T02:30:53.381Z,17.65
2022-08-20T02:33:24.419Z,20.73
2022-08-20T02:35:56.379Z,16.67
2022-08-20T02:38:24.320Z,19.25
2022-08-20T02:40:52.231Z,19.45
2022-08-20T02:43:20.233Z,20.33
2022-08-20T02:45:47.640Z,18.60
2022-08-20T02:48:20.974Z,19.73
2022-08-20T02:51:09.079Z,20.05
2022-08-20T02:53:41.195Z,19.38
2022-08-20T02:56:11.923Z,19.48
2022-08-20T02:58:41.603Z,20.60
2022-08-20T03:01:16.765Z,19.58
2022-08-20T03:03:45.475Z,21.35
2022-08-20T03:06:14.830Z,21.00
2022-08-20T03:08:43.953Z,19.67
2022-08-20T03:11:12.049Z,21.20
2022-08-20T03:13:39.448Z,17.90
2022-08-20T03:16:08.322Z,18.25
2022-08-20T03:18:44.957Z,20.13
2022-08-20T03:21:14.796Z,19.13
2022-08-20T03:23:43.884Z,15.20
2022-08-20T03:26:13.814Z,19.73
2022-08-20T03:28:42.120Z,18.90
2022-08-20T03:31:10.197Z,21.23
2022-08-20T03:33:52.681Z,20.40
2022-08-20T03:36:28.166Z,21.63
2022-08-20T03:39:05.539Z,21.30
2022-08-20T03:41:32.863Z,24.15
2022-08-20T03:44:00.134Z,22.52
2022-08-20T03:46:27.468Z,22.60
2022-08-20T03:48:59.815Z,25.15
2022-08-20T03:51:30.769Z,21.65
2022-08-20T03:53:59.006Z,25.88
2022-08-20T03:56:27.265Z,23.52
2022-08-20T03:58:54.847Z,23.10
2022-08-20T04:01:44.261Z,24.95
2022-08-20T04:04:12.242Z,27.40
2022-08-20T04:06:42.516Z,24.98
2022-08-20T04:09:12.347Z,26.92
2022-08-20T04:11:41.789Z,24.98
2022-08-20T04:14:11.829Z,24.92
2022-08-20T04:16:46.303Z,26.20
2022-08-20T04:19:16.864Z,28.60
2022-08-20T04:21:44.388Z,26.77
2022-08-20T04:24:21.993Z,25.55
2022-08-20T04:27:02.488Z,30.42
2022-08-20T04:29:32.204Z,28.73
2022-08-20T04:32:02.761Z,27.77
2022-08-20T04:34:34.795Z,28.58
2022-08-20T04:37:02.154Z,28.67
2022-08-20T04:39:29.444Z,30.42
2022-08-20T04:41:56.739Z,27.98
2022-08-20T04:44:24.031Z,31.17
2022-08-20T04:46:51.334Z,33.83
2022-08-20T04:49:20.558Z,30.75
2022-08-20T04:51:47.793Z,34.17
2022-08-20T04:54:15.055Z,32.60
2022-08-20T04:56:44.876Z,35.72
2022-08-20T04:59:12.137Z,35.88
2022-08-20T05:01:39.461Z,37.70
2022-08-20T05:04:06.726Z,35.85
2022-08-20T05:06:34.139Z,40.22
2022-08-20T05:09:01.517Z,39.95
2022-08-20T05:11:33.946Z,39.60
2022-08-20T05:14:11.355Z,41.25
2022-08-20T05:16:40.910Z,42.28
2022-08-20T05:19:12.371Z,42.38
2022-08-20T05:21:40.417Z,34.97
2022-08-20T05:24:08.363Z,41.10
2022-08-20T05:26:36.501Z,38.00
2022-08-20T05:29:05.621Z,38.75
2022-08-20T05:31:34.742Z,39.50
2022-08-20T05:34:11.874Z,38.75
2022-08-20T05:36:52.170Z,39.35
2022-08-20T05:39:23.001Z,37.80
2022-08-20T05:41:51.327Z,35.10
2022-08-20T05:44:19.957Z,39.90
2022-08-20T05:46:48.555Z,36.33
2022-08-20T05:49:21.538Z,36.95
2022-08-20T05:51:51.374Z,41.00
2022-08-20T05:54:18.814Z,40.63
2022-08-20T05:56:46.221Z,36.33
2022-08-20T05:59:14.144Z,40.45
2022-08-20T06:01:43.128Z,40.22
2022-08-20T06:04:32.028Z,38.03
2022-08-20T06:07:06.801Z,39.20
2022-08-20T06:09:36.249Z,41.13
2022-08-20T06:12:08.378Z,39.50
2022-08-20T06:14:36.450Z,37.85
2022-08-20T06:17:15.501Z,38.25
2022-08-20T06:19:46.116Z,38.22
2022-08-20T06:22:18.102Z,37.58
2022-08-20T06:24:47.830Z,36.03
2022-08-20T06:27:17.292Z,37.92
2022-08-20T06:29:45.062Z,37.03
2022-08-20T06:32:12.558Z,35.60
2022-08-20T06:34:50.481Z,35.35
2022-08-20T06:37:30.908Z,35.50
2022-08-20T06:40:19.675Z,33.03
2022-08-20T06:42:48.880Z,32.17
2022-08-20T06:45:24.477Z,37.13
2022-08-20T06:47:55.841Z,34.58
2022-08-20T06:50:43.164Z,36.05
2022-08-20T06:53:20.796Z,33.78
2022-08-20T06:55:54.707Z,30.85
2022-08-20T06:58:37.832Z,30.83
2022-08-20T07:01:12.321Z,26.60
2022-08-20T07:03:54.791Z,26.00
2022-08-20T07:06:26.143Z,31.65
2022-08-20T07:08:55.774Z,29.33
2022-08-20T07:11:27.794Z,29.70
2022-08-20T07:13:58.462Z,26.58
2022-08-20T07:16:27.173Z,24.67
2022-08-20T07:18:54.908Z,26.27
2022-08-20T07:21:22.216Z,25.80
2022-08-20T07:23:49.605Z,24.90
2022-08-20T07:26:18.291Z,25.38
2022-08-20T07:28:46.679Z,26.40
2022-08-20T07:31:34.977Z,27.27
2022-08-20T07:34:03.997Z,24.60
2022-08-20T07:36:33.219Z,25.05
2022-08-20T07:39:05.682Z,23.45
2022-08-20T07:41:34.226Z,21.60
2022-08-20T07:44:02.412Z,24.48
2022-08-20T07:46:31.610Z,21.20
2022-08-20T07:48:59.658Z,19.92
2022-08-20T07:51:27.625Z,21.23
2022-08-20T07:53:58.402Z,22.40
2022-08-20T07:56:26.642Z,22.58
2022-08-20T07:59:01.494Z,20.80
2022-08-20T08:01:32.326Z,20.38
2022-08-20T08:04:00.728Z,20.98
2022-08-20T08:06:31.291Z,22.33
2022-08-20T08:09:14.232Z,19.52
2022-08-20T08:11:50.356Z,19.45
2022-08-20T08:14:26.659Z,18.30
2022-08-20T08:17:02.097Z,18.15
2022-08-20T08:19:38.805Z,19.27
2022-08-20T08:22:12.663Z,16.95
2022-08-20T08:24:43.298Z,16.55
2022-08-20T08:27:24.374Z,17.20
2022-08-20T08:29:51.665Z,15.77
2022-08-20T08:32:19.480Z,18.25
2022-08-20T08:34:48.127Z,15.15
2022-08-20T08:37:15.431Z,16.83
2022-08-20T08:39:42.844Z,16.25
2022-08-20T08:42:48.087Z,16.73
2022-08-20T08:45:17.298Z,13.73
2022-08-20T08:47:45.930Z,15.23
2022-08-20T08:50:52.947Z,14.32
2022-08-20T08:53:33.478Z,14.73
2022-08-20T08:56:02.094Z,15.05
2022-08-20T08:58:29.758Z,13.40
2022-08-20T09:00:57.362Z,13.05
2022-08-20T09:03:36.499Z,12.30
2022-08-20T09:06:04.448Z,11.73
2022-08-20T09:09:06.589Z,12.90
2022-08-20T09:11:50.460Z,12.70
2022-08-20T09:14:21.714Z,10.95
2022-08-20T09:16:52.168Z,13.10
2022-08-20T09:19:21.680Z,13.57
2022-08-20T09:21:49.508Z,11.05
2022-08-20T09:24:17.083Z,10.77
2022-08-20T09:26:44.771Z,11.85
2022-08-20T09:29:12.143Z,11.25
2022-08-20T09:31:40.313Z,11.13
2022-08-20T09:34:07.718Z,10.38
2022-08-20T09:36:35.764Z,10.75
2022-08-20T09:39:03.431Z,10.40
2022-08-20T09:41:33.729Z,8.93
2022-08-20T09:44:02.484Z,9.80
2022-08-20T09:46:29.809Z,9.40
2022-08-20T09:48:57.131Z,8.45
2022-08-20T09:51:24.523Z,8.00
2022-08-20T09:53:52.111Z,9.93
2022-08-20T09:56:19.498Z,9.35
2022-08-20T09:59:02.363Z,7.90
2022-08-20T10:01:30.333Z,8.23
2022-08-20T10:03:57.664Z,8.35
2022-08-20T10:06:25.036Z,5.72
2022-08-20T10:08:52.565Z,5.70
2022-08-20T10:11:19.898Z,5.20
2022-08-20T10:13:48.006Z,5.18
2022-08-20T10:16:15.308Z,4.60
2022-08-20T10:18:42.604Z,5.22
2022-08-20T10:21:12.432Z,4.68
2022-08-20T10:23:40.553Z,5.53
2022-08-20T10:26:10.901Z,4.80
2022-08-20T10:28:39.082Z,4.35
2022-08-20T10:31:10.029Z,4.47
2022-08-20T10:33:40.337Z,4.88
2022-08-20T10:36:18.052Z,5.28
2022-08-20T10:38:45.563Z,4.32
2022-08-20T10:41:12.953Z,4.22
2022-08-20T10:43:40.451Z,3.72
2022-08-20T10:46:07.796Z,3.50
2022-08-20T10:48:35.746Z,4.32
2022-08-20T10:51:03.307Z,3.95
2022-08-20T10:53:31.147Z,4.40
2022-08-20T10:55:59.051Z,4.57
2022-08-20T10:58:37.443Z,3.95
2022-08-20T11:01:07.585Z,3.95
2022-08-20T11:03:36.505Z,3.15
2022-08-20T11:06:04.821Z,2.95
2022-08-20T11:08:33.682Z,3.42
2022-08-20T11:11:02.268Z,3.95
2022-08-20T11:13:29.590Z,3.40
2022-08-20T11:15:56.967Z,3.80
2022-08-20T11:18:24.324Z,3.70
2022-08-20T11:20:52.325Z,3.22
2022-08-20T11:23:19.770Z,3.47
2022-08-20T11:25:49.848Z,3.72
2022-08-20T11:28:31.679Z,3.53
2022-08-20T11:31:01.559Z,3.35
2022-08-20T11:33:29.612Z,4.43
2022-08-20T11:35:57.138Z,3.80
2022-08-20T11:38:24.889Z,3.90
2022-08-20T11:40:52.169Z,4.38
2022-08-20T11:43:19.531Z,3.70
2022-08-20T11:45:54.485Z,3.40
2022-08-20T11:48:22.395Z,3.72
2022-08-20T11:50:50.683Z,3.67
2022-08-20T11:53:18.075Z,4.25
2022-08-20T11:55:46.806Z,3.63
2022-08-20T11:58:15.216Z,3.42
2022-08-20T12:00:42.767Z,3.55
2022-08-20T12:03:11.624Z,4.00
2022-08-20T12:05:44.811Z,3.78
2022-08-20T12:08:26.931Z,3.92
2022-08-20T12:11:05.227Z,3.10
2022-08-20T12:13:48.307Z,3.22
2022-08-20T12:16:19.075Z,3.15
2022-08-20T12:18:48.350Z,4.07
2022-08-20T12:21:16.440Z,3.85
2022-08-20T12:23:44.621Z,3.85
2022-08-20T12:26:11.945Z,3.30
2022-08-20T12:28:39.229Z,3.38
2022-08-20T12:31:08.162Z,3.53
2022-08-20T12:33:35.507Z,3.92
2022-08-20T12:36:06.282Z,3.42
2022-08-20T12:38:36.065Z,3.67
2022-08-20T12:41:03.476Z,3.10
2022-08-20T12:43:30.765Z,4.15
2022-08-20T12:45:58.172Z,3.58
2022-08-20T12:48:28.342Z,3.58
2022-08-20T12:50:55.713Z,4.20
2022-08-20T12:53:22.989Z,3.78
2022-08-20T12:55:50.287Z,3.50
2022-08-20T12:58:17.614Z,4.07
2022-08-20T13:00:50.620Z,4.13
2022-08-20T13:03:20.029Z,3.40
2022-08-20T13:05:50.101Z,3.50
2022-08-20T13:08:19.165Z,3.67
2022-08-20T13:10:47.139Z,4.10
2022-08-20T13:13:20.944Z,3.75
2022-08-20T13:15:50.902Z,3.65
2022-08-20T13:18:19.536Z,3.70
2022-08-20T13:20:48.261Z,3.38
2022-08-20T13:23:16.062Z,3.72
2022-08-20T13:25:43.366Z,3.53
2022-08-20T13:28:10.665Z,3.40
2022-08-20T13:30:39.092Z,3.88
2022-08-20T13:33:09.642Z,4.30
2022-08-20T13:35:38.059Z,3.35
2022-08-20T13:38:05.542Z,3.35
2022-08-20T13:40:33.088Z,3.72
2022-08-20T13:43:05.954Z,3.75
2022-08-20T13:45:35.051Z,4.00
2022-08-20T13:48:02.731Z,3.45
2022-08-20T13:50:31.885Z,3.55
2022-08-20T13:52:59.305Z,3.28
2022-08-20T13:55:29.377Z,4.07
2022-08-20T13:57:58.378Z,3.40
2022-08-20T14:00:34.590Z,4.18
2022-08-20T14:03:05.852Z,4.70
2022-08-20T14:05:36.714Z,4.40
2022-08-20T14:08:21.400Z,4.07
2022-08-20T14:10:51.503Z,3.25
2022-08-20T14:13:24.400Z,4.70
2022-08-20T14:15:52.359Z,4.45
2022-08-20T14:18:19.938Z,4.35
2022-08-20T14:20:47.672Z,3.85
2022-08-20T14:23:15.944Z,4.05
2022-08-20T14:25:49.402Z,4.10
2022-08-20T14:28:22.985Z,4.32
2022-08-20T14:30:52.611Z,4.15
2022-08-20T14:33:23.761Z,3.67
2022-08-20T14:35:53.007Z,4.38
2022-08-20T14:38:22.832Z,4.35
2022-08-20T14:40:50.612Z,3.85
2022-08-20T14:43:18.480Z,4.35
2022-08-20T14:45:45.999Z,4.10
2022-08-20T14:48:14.917Z,4.05
2022-08-20T14:50:42.383Z,4.60
2022-08-20T14:53:09.712Z,4.35
2022-08-20T14:55:38.484Z,3.78
2022-08-20T14:58:15.048Z,4.57
2022-08-20T15:00:43.645Z,4.30
2022-08-20T15:03:13.389Z,4.75
2022-08-20T15:05:41.051Z,5.00
2022-08-20T15:08:10.732Z,4.93
2022-08-20T15:10:39.176Z,4.45
2022-08-20T15:13:07.654Z,3.80
2022-08-20T15:15:35.417Z,4.07
2022-08-20T15:18:03.487Z,4.03
2022-08-20T15:20:34.491Z,4.20
2022-08-20T15:23:02.560Z,3.83
2022-08-20T15:25:36.753Z,3.63
2022-08-20T15:28:09.770Z,4.78
2022-08-20T15:30:43.559Z,4.18
2022-08-20T15:33:11.526Z,3.65
2022-08-20T15:35:39.310Z,4.63
2022-08-20T15:38:07.283Z,4.53
2022-08-20T15:40:34.761Z,4.18
2022-08-20T15:43:04.692Z,4.20
2022-08-20T15:45:34.155Z,4.35
2022-08-20T15:48:17.308Z,3.65
2022-08-20T15:51:46.557Z,3.55
2022-08-20T15:54:25.181Z,4.13
2022-08-20T15:57:17.378Z,3.88
2022-08-20T16:00:40.971Z,4.38
2022-08-20T16:03:34.898Z,3.80
2022-08-20T16:06:22.988Z,3.17
2022-08-20T16:09:34.087Z,3.83
2022-08-20T16:12:20.034Z,3.75
2022-08-20T16:14:56.889Z,3.88
2022-08-20T16:17:52.593Z,3.85
2022-08-20T16:20:47.995Z,3.55
2022-08-20T16:23:21.505Z,4.10
2022-08-20T16:26:16.064Z,3.83
2022-08-20T16:29:17.866Z,4.15
2022-08-20T16:31:56.340Z,3.75
2022-08-20T16:34:42.421Z,4.20
2022-08-20T16:37:59.508Z,4.05
2022-08-20T16:40:39.120Z,3.97
2022-08-20T16:43:12.389Z,4.68
2022-08-20T16:45:59.994Z,4.03
2022-08-20T16:48:57.842Z,4.45
2022-08-20T16:51:51.979Z,4.88
2022-08-20T16:54:28.346Z,4.10
2022-08-20T16:57:06.411Z,4.30
2022-08-20T16:59:53.335Z,5.13
2022-08-20T17:02:21.471Z,4.53
2022-08-20T17:04:59.326Z,4.35
2022-08-20T17:07:53.329Z,4.25
2022-08-20T17:10:40.532Z,3.78
2022-08-20T17:13:13.785Z,3.60
2022-08-20T17:15:57.049Z,3.22
2022-08-20T17:18:37.010Z,3.13
2022-08-20T17:21:26.086Z,3.80
2022-08-20T17:24:04.791Z,3.60
2022-08-20T17:26:53.988Z,2.83
2022-08-20T17:29:29.347Z,2.70
2022-08-20T17:32:10.126Z,3.33
2022-08-20T17:34:51.983Z,3.45
2022-08-20T17:37:40.657Z,3.95
2022-08-20T17:40:29.277Z,3.80
2022-08-20T17:43:04.011Z,3.40
2022-08-20T17:45:46.557Z,3.30
2022-08-20T17:48:28.870Z,3.40
2022-08-20T17:50:58.134Z,3.97
2022-08-20T17:53:36.836Z,2.58
2022-08-20T17:56:31.552Z,2.90
2022-08-20T18:00:02.694Z,3.05
2022-08-20T18:02:33.958Z,3.72
2022-08-20T18:05:02.760Z,2.60
2022-08-20T18:07:56.243Z,3.13
2022-08-20T18:10:27.131Z,2.72
2022-08-20T18:13:19.752Z,3.30
2022-08-20T18:15:57.017Z,3.78
2022-08-20T18:19:36.294Z,3.80
2022-08-20T18:22:20.525Z,2.83
2022-08-20T18:25:37.075Z,4.20
2022-08-20T18:28:27.503Z,3.15
2022-08-20T18:31:08.901Z,2.83
2022-08-20T18:33:43.654Z,4.10
2022-08-20T18:36:27.109Z,3.97
2022-08-20T18:39:31.268Z,3.15
2022-08-20T18:42:09.683Z,3.35
2022-08-20T18:44:47.790Z,2.60
2022-08-20T18:47:33.021Z,3.30
2022-08-20T18:50:40.333Z,4.38
2022-08-20T18:53:13.175Z,3.67
2022-08-20T18:55:47.705Z,2.47
2022-08-20T18:58:46.958Z,3.08
2022-08-20T19:01:15.772Z,3.03
2022-08-20T19:03:53.262Z,3.15
2022-08-20T19:07:18.283Z,2.80
2022-08-20T19:10:27.962Z,3.13
2022-08-20T19:13:41.531Z,3.13
2022-08-20T19:16:20.188Z,5.45
2022-08-20T19:18:54.875Z,4.40
2022-08-20T19:21:35.698Z,3.50
2022-08-20T19:24:07.362Z,3.83
2022-08-20T19:26:47.672Z,4.25
2022-08-20T19:29:31.006Z,3.83
2022-08-20T19:32:07.254Z,4.57
2022-08-20T19:34:36.399Z,3.90
2022-08-20T19:37:35.824Z,3.85
2022-08-20T19:40:21.586Z,3.15
2022-08-20T19:42:49.834Z,3.78
2022-08-20T19:45:52.027Z,4.03
2022-08-20T19:48:50.503Z,4.63
2022-08-20T19:51:53.994Z,4.20
2022-08-20T19:54:26.450Z,4.07
2022-08-20T19:57:05.240Z,4.05
2022-08-20T19:59:32.744Z,3.75
2022-08-20T20:02:04.913Z,4.10
2022-08-20T20:04:55.625Z,4.70
2022-08-20T20:07:46.722Z,5.55
2022-08-20T20:10:36.559Z,8.27
2022-08-20T20:13:13.817Z,5.90
2022-08-20T20:15:43.619Z,4.75
2022-08-20T20:18:12.081Z,4.30
2022-08-20T20:20:57.950Z,4.80
2022-08-20T20:23:41.631Z,4.68
2022-08-20T20:26:20.251Z,4.82
2022-08-20T20:29:03.674Z,4.57
2022-08-20T20:31:45.127Z,4.60
2022-08-20T20:34:15.564Z,5.35
2022-08-20T20:36:47.703Z,4.93
2022-08-20T20:39:41.177Z,4.45
2022-08-20T20:42:13.906Z,4.30
2022-08-20T20:44:44.899Z,4.65
2022-08-20T20:47:33.370Z,4.55
2022-08-20T20:50:12.391Z,4.93
2022-08-20T20:52:54.543Z,3.85
2022-08-20T20:55:37.911Z,4.63
2022-08-20T20:58:05.681Z,5.03
2022-08-20T21:00:34.957Z,5.25
2022-08-20T21:03:02.668Z,5.22
2022-08-20T21:05:33.205Z,4.22
2022-08-20T21:08:08.094Z,4.63
2022-08-20T21:10:39.604Z,4.53
2022-08-20T21:13:10.582Z,4.15
2022-08-20T21:15:39.856Z,4.30
2022-08-20T21:18:09.312Z,4.80
2022-08-20T21:20:37.179Z,6.13
2022-08-20T21:23:05.195Z,5.05
2022-08-20T21:25:35.219Z,6.43
2022-08-20T21:28:03.792Z,4.90
2022-08-20T21:30:33.716Z,4.75
2022-08-20T21:33:01.181Z,5.05
2022-08-20T21:35:30.130Z,6.03
2022-08-20T21:37:57.460Z,7.00
2022-08-20T21:40:28.450Z,7.32
2022-08-20T21:42:56.344Z,5.03
2022-08-20T21:45:23.694Z,5.95
2022-08-20T21:47:57.205Z,5.97
2022-08-20T21:50:25.753Z,6.18
2022-08-20T21:52:59.149Z,6.05
2022-08-20T21:55:37.510Z,6.88
2022-08-20T21:58:08.003Z,7.32
2022-08-20T22:01:04.190Z,7.15
2022-08-20T22:03:38.669Z,7.35
2022-08-20T22:08:39.776Z,7.60
2022-08-20T22:11:10.681Z,7.75
2022-08-20T22:13:39.764Z,7.78
2022-08-20T22:16:19.569Z,8.10
2022-08-20T22:18:49.414Z,7.82
2022-08-20T22:21:31.692Z,8.48
2022-08-20T22:24:05.359Z,8.25
2022-08-20T22:26:36.728Z,8.18
2022-08-20T22:29:06.792Z,8.13
2022-08-20T22:31:40.369Z,7.80
2022-08-20T22:34:09.889Z,9.02
2022-08-20T22:36:37.433Z,8.00
2022-08-20T22:39:05.558Z,8.13
2022-08-20T22:41:33.172Z,7.78
2022-08-20T22:44:00.685Z,9.45
2022-08-20T22:46:36.662Z,7.68
2022-08-20T22:49:09.286Z,8.60
2022-08-20T22:51:39.082Z,8.98
2022-08-20T22:54:13.794Z,9.15
2022-08-20T22:56:41.079Z,9.60
2022-08-20T22:59:08.608Z,10.13
2022-08-20T23:01:37.045Z,9.70
2022-08-20T23:04:17.360Z,8.57
2022-08-20T23:06:44.905Z,8.43
2022-08-20T23:09:13.066Z,9.18
2022-08-20T23:11:41.190Z,8.25
2022-08-20T23:14:08.598Z,8.60
2022-08-20T23:16:43.708Z,8.50
2022-08-20T23:19:23.062Z,8.05
2022-08-20T23:21:51.730Z,8.07
2022-08-20T23:24:20.123Z,8.23
2022-08-20T23:26:52.525Z,8.20
2022-08-20T23:29:25.414Z,9.63
2022-08-20T23:31:56.672Z,8.55
2022-08-20T23:34:25.960Z,8.38
2022-08-20T23:36:55.930Z,10.48
2022-08-20T23:39:25.508Z,9.00
2022-08-20T23:41:53.513Z,8.73
2022-08-20T23:44:26.101Z,9.20
2022-08-20T23:47:02.508Z,8.30
2022-08-20T23:49:32.148Z,9.50
2022-08-20T23:52:00.741Z,10.05
2022-08-20T23:54:33.485Z,8.52
2022-08-20T23:57:00.924Z,9.32
2022-08-20T23:59:28.308Z,9.90
